Time;durP1;ratioP1;P1;durP2;ratioP2;P2;SDS_P1;SDS_P2;PMS_P1;PMS_P2;Temp;Humidity;BMP_temperature;BMP_pressure;BME280_temperature;BME280_humidity;BME280_pressure;Samples;Min_cycle;Max_cycle;Signal;HPM_P1;HPM_P2
2022/11/29 00:01:18;;;;;;;37.90;26.30;;;4.50;94.10;;;;;;5054415;28;20175;-90
2022/11/29 00:03:44;;;;;;;42.47;27.43;;;4.50;94.10;;;;;;5054155;28;20175;-90
2022/11/29 00:06:15;;;;;;;35.93;25.97;;;4.50;94.10;;;;;;5054251;28;20210;-91
2022/11/29 00:08:42;;;;;;;39.73;26.83;;;4.50;94.10;;;;;;5055395;28;20183;-90
2022/11/29 00:11:12;;;;;;;39.60;27.23;;;4.50;94.10;;;;;;5054869;28;20182;-90
2022/11/29 00:13:39;;;;;;;41.73;27.90;;;4.40;94.10;;;;;;5054893;28;20179;-89
2022/11/29 00:16:10;;;;;;;40.50;26.93;;;4.50;94.20;;;;;;5054302;28;20203;-91
2022/11/29 00:18:36;;;;;;;37.73;25.70;;;4.50;94.20;;;;;;5055520;28;20688;-90
2022/11/29 00:21:09;;;;;;;41.83;27.40;;;4.50;94.10;;;;;;5055110;28;20173;-91
2022/11/29 00:23:35;;;;;;;42.00;27.20;;;4.50;94.10;;;;;;5054078;28;20656;-91
2022/11/29 00:26:07;;;;;;;42.37;26.67;;;4.50;94.20;;;;;;5054978;28;20195;-90
2022/11/29 00:28:34;;;;;;;47.87;28.07;;;4.50;94.20;;;;;;5053808;28;20649;-91
2022/11/29 00:31:02;;;;;;;40.00;26.87;;;4.50;94.20;;;;;;5054726;28;20171;-91
2022/11/29 00:33:28;;;;;;;41.60;27.90;;;4.50;94.20;;;;;;5056805;28;20183;-91
2022/11/29 00:35:53;;;;;;;48.00;28.13;;;4.50;94.10;;;;;;5057335;28;20195;-91
2022/11/29 00:38:19;;;;;;;43.53;26.80;;;4.40;94.20;;;;;;5057307;28;20175;-91
2022/11/29 00:40:50;;;;;;;43.07;27.60;;;4.40;94.20;;;;;;5057464;28;20635;-91
2022/11/29 00:43:15;;;;;;;38.67;25.63;;;4.40;94.20;;;;;;5057240;28;20186;-90
2022/11/29 00:45:41;;;;;;;44.53;27.70;;;4.40;94.20;;;;;;5055780;28;20301;-90
2022/11/29 00:48:07;;;;;;;41.13;26.00;;;4.40;94.20;;;;;;5056986;28;20684;-91
2022/11/29 00:50:32;;;;;;;41.33;28.30;;;4.40;94.20;;;;;;5057143;28;20190;-91
2022/11/29 00:52:58;;;;;;;43.43;29.47;;;4.50;94.30;;;;;;5056315;28;20241;-91
2022/11/29 00:55:23;;;;;;;43.87;29.33;;;4.40;94.30;;;;;;5056516;28;20206;-91
2022/11/29 00:57:49;;;;;;;41.83;27.80;;;4.40;94.30;;;;;;5056004;28;20182;-91
2022/11/29 01:00:15;;;;;;;43.40;28.43;;;4.50;94.30;;;;;;5056400;28;20321;-91
2022/11/29 01:02:41;;;;;;;45.10;27.87;;;4.50;94.30;;;;;;5056627;28;20178;-91
2022/11/29 01:05:07;;;;;;;42.73;28.77;;;4.40;94.30;;;;;;5056550;28;20243;-91
2022/11/29 01:07:32;;;;;;;48.80;29.73;;;4.40;94.30;;;;;;5056445;28;20180;-91
2022/11/29 01:09:58;;;;;;;48.43;30.13;;;4.40;94.40;;;;;;5056824;28;20191;-90
2022/11/29 01:12:23;;;;;;;46.23;29.57;;;4.50;94.40;;;;;;5056587;28;20190;-90
2022/11/29 01:14:49;;;;;;;52.03;30.17;;;4.40;94.40;;;;;;5056436;28;20273;-91
2022/11/29 01:17:15;;;;;;;45.37;28.67;;;4.40;94.40;;;;;;5055773;28;20196;-90
2022/11/29 01:19:41;;;;;;;45.27;30.07;;;4.40;94.40;;;;;;5055742;28;20202;-91
2022/11/29 01:22:06;;;;;;;47.83;30.73;;;4.50;94.40;;;;;;5056353;28;20175;-91
2022/11/29 01:24:32;;;;;;;45.97;30.33;;;4.40;94.40;;;;;;5056748;28;20183;-91
2022/11/29 01:26:58;;;;;;;55.47;31.37;;;4.40;94.50;;;;;;5057424;28;20234;-91
2022/11/29 01:29:26;;;;;;;48.80;31.40;;;4.40;94.50;;;;;;5057575;28;20202;-90
2022/11/29 01:31:52;;;;;;;49.40;30.07;;;4.40;94.50;;;;;;5056859;28;20185;-91
2022/11/29 01:34:17;;;;;;;54.93;31.83;;;4.40;94.50;;;;;;5056814;28;20279;-91
2022/11/29 01:36:43;;;;;;;48.13;32.87;;;4.40;94.50;;;;;;5056947;28;20206;-91
2022/11/29 01:39:09;;;;;;;52.70;32.77;;;4.40;94.50;;;;;;5057451;28;20665;-91
2022/11/29 01:41:36;;;;;;;51.27;32.40;;;4.40;94.60;;;;;;5057686;28;20179;-91
2022/11/29 01:44:12;;;;;;;50.57;31.57;;;4.40;94.60;;;;;;5057057;28;20183;-92
2022/11/29 01:46:43;;;;;;;54.50;33.77;;;4.40;94.60;;;;;;5053939;28;20233;-92
2022/11/29 01:49:34;;;;;;;53.70;32.40;;;4.40;94.60;;;;;;5056915;28;20219;-91
2022/11/29 01:52:11;;;;;;;56.70;33.67;;;4.40;94.60;;;;;;5050964;28;20294;-91
2022/11/29 01:54:44;;;;;;;58.17;33.80;;;4.40;94.60;;;;;;5058295;28;20358;-91
2022/11/29 01:57:10;;;;;;;54.83;34.27;;;4.40;94.60;;;;;;5061005;28;20215;-91
2022/11/29 01:59:40;;;;;;;60.10;34.13;;;4.40;94.60;;;;;;5060694;28;20206;-91
2022/11/29 02:02:12;;;;;;;60.13;35.03;;;4.30;94.60;;;;;;5062767;28;20163;-91
2022/11/29 02:04:40;;;;;;;60.83;37.70;;;4.40;94.60;;;;;;5060252;28;20636;-91
2022/11/29 02:07:06;;;;;;;61.40;35.77;;;4.30;94.70;;;;;;5059671;28;20191;-91
2022/11/29 02:09:32;;;;;;;61.87;34.73;;;4.30;94.70;;;;;;5059702;28;20195;-91
2022/11/29 02:12:18;;;;;;;59.80;34.43;;;4.30;94.70;;;;;;5060063;28;20277;-91
2022/11/29 02:15:16;;;;;;;64.23;36.00;;;4.30;94.70;;;;;;5059293;28;20644;-91
2022/11/29 02:18:03;;;;;;;64.27;36.17;;;4.30;94.70;;;;;;5059594;28;20182;-91
2022/11/29 02:20:54;;;;;;;55.20;35.23;;;4.30;94.70;;;;;;5059071;28;20201;-91
2022/11/29 02:23:55;;;;;;;62.87;36.13;;;4.30;94.70;;;;;;5059389;28;20228;-91
2022/11/29 02:26:58;;;;;;;59.63;35.27;;;4.30;94.70;;;;;;5060284;28;20196;-91
2022/11/29 02:30:04;;;;;;;59.13;35.07;;;4.30;94.70;;;;;;5059574;28;20183;-91
2022/11/29 02:32:58;;;;;;;68.47;38.23;;;4.30;94.70;;;;;;5059329;28;20177;-91
2022/11/29 02:35:33;;;;;;;65.93;36.83;;;4.30;94.70;;;;;;5059175;28;20784;-90
2022/11/29 02:38:22;;;;;;;67.40;40.03;;;4.30;94.70;;;;;;5059493;28;20197;-91
2022/11/29 02:41:26;;;;;;;64.57;37.80;;;4.30;94.70;;;;;;5059171;28;20212;-91
2022/11/29 02:44:13;;;;;;;63.53;37.90;;;4.30;94.70;;;;;;5022444;28;20178;-91
2022/11/29 02:46:57;;;;;;;68.77;39.13;;;4.30;94.70;;;;;;5056359;28;20208;-91
2022/11/29 02:49:41;;;;;;;63.60;37.03;;;4.30;94.70;;;;;;5060189;28;20169;-91
2022/11/29 02:52:14;;;;;;;70.63;39.43;;;4.30;94.70;;;;;;5058020;28;20223;-91
2022/11/29 02:54:59;;;;;;;77.00;40.30;;;4.30;94.70;;;;;;5059429;28;20170;-91
2022/11/29 02:57:38;;;;;;;70.37;40.47;;;4.30;94.70;;;;;;5058990;28;20229;-91
2022/11/29 03:00:09;;;;;;;69.33;39.30;;;4.30;94.70;;;;;;5059553;28;20256;-91
2022/11/29 03:02:49;;;;;;;64.73;40.47;;;4.30;94.70;;;;;;5059501;28;20171;-91
2022/11/29 03:05:41;;;;;;;72.10;41.50;;;4.30;94.70;;;;;;5058196;28;20205;-91
2022/11/29 03:08:22;;;;;;;67.83;41.10;;;4.30;94.80;;;;;;5058194;28;20174;-90
2022/11/29 03:11:21;;;;;;;65.23;38.30;;;4.20;94.70;;;;;;5058193;28;20186;-90
2022/11/29 03:13:55;;;;;;;75.17;40.73;;;4.20;94.70;;;;;;5059356;28;20181;-91
2022/11/29 03:16:52;;;;;;;70.60;41.37;;;4.30;94.80;;;;;;5058132;28;20203;-91
2022/11/29 03:19:18;;;;;;;67.17;41.10;;;4.20;94.70;;;;;;5058948;28;20203;-91
2022/11/29 03:21:46;;;;;;;72.87;39.77;;;4.20;94.80;;;;;;5058924;28;20723;-91
2022/11/29 03:24:24;;;;;;;75.33;41.60;;;4.20;94.80;;;;;;5059222;28;20531;-91
2022/11/29 03:26:59;;;;;;;68.93;41.73;;;4.20;94.80;;;;;;5058887;28;20267;-91
2022/11/29 03:29:34;;;;;;;74.87;41.90;;;4.20;94.80;;;;;;5059255;28;20233;-91
2022/11/29 03:32:08;;;;;;;75.30;43.77;;;4.20;94.80;;;;;;5058310;28;20270;-91
2022/11/29 03:34:39;;;;;;;70.00;42.20;;;4.20;94.80;;;;;;5058496;28;20171;-91
2022/11/29 03:37:36;;;;;;;74.87;42.20;;;4.20;94.80;;;;;;5058761;28;20224;-91
2022/11/29 03:40:10;;;;;;;74.60;43.03;;;4.20;94.80;;;;;;5058404;28;20200;-91
2022/11/29 03:43:00;;;;;;;77.73;42.13;;;4.20;94.80;;;;;;5057791;28;20258;-90
2022/11/29 03:45:58;;;;;;;79.03;41.93;;;4.20;94.80;;;;;;5054130;28;20203;-90
2022/11/29 03:48:33;;;;;;;77.83;44.17;;;4.20;94.80;;;;;;5057477;28;20198;-91
2022/11/29 03:51:16;;;;;;;74.60;41.77;;;4.20;94.80;;;;;;5057522;28;20668;-90
2022/11/29 03:53:51;;;;;;;80.43;44.00;;;4.20;94.80;;;;;;5058153;28;20244;-91
2022/11/29 03:56:32;;;;;;;81.30;43.43;;;4.20;94.80;;;;;;5057249;28;20206;-91
2022/11/29 03:59:43;;;;;;;74.47;43.27;;;4.20;94.80;;;;;;5058255;28;20187;-91
2022/11/29 04:02:22;;;;;;;84.13;44.23;;;4.20;94.80;;;;;;5055319;28;20179;-90
2022/11/29 04:05:10;;;;;;;76.77;43.77;;;4.20;94.80;;;;;;5057215;28;20178;-91
2022/11/29 04:08:25;;;;;;;75.80;41.93;;;4.20;94.80;;;;;;5057854;28;20568;-91
2022/11/29 04:11:03;;;;;;;76.67;41.77;;;4.20;94.80;;;;;;5057247;28;20206;-91
2022/11/29 04:14:04;;;;;;;78.77;42.90;;;4.20;94.80;;;;;;5057110;28;20180;-91
2022/11/29 04:16:49;;;;;;;78.20;43.77;;;4.20;94.80;;;;;;5019492;28;20666;-91
2022/11/29 04:19:23;;;;;;;78.27;45.30;;;4.20;94.80;;;;;;5052534;28;20620;-90
2022/11/29 04:22:06;;;;;;;75.50;43.73;;;4.20;94.80;;;;;;5056837;28;20178;-91
2022/11/29 04:24:57;;;;;;;76.07;44.00;;;4.20;94.80;;;;;;5057326;28;20175;-90
2022/11/29 04:27:39;;;;;;;79.93;43.37;;;4.20;94.70;;;;;;5057445;28;20525;-90
2022/11/29 04:30:19;;;;;;;73.87;41.13;;;4.20;94.70;;;;;;5056664;28;20177;-91
2022/11/29 04:33:22;;;;;;;78.23;41.53;;;4.20;94.80;;;;;;5056163;28;20182;-91
2022/11/29 04:36:15;;;;;;;82.53;43.90;;;4.20;94.70;;;;;;5056808;28;20263;-90
2022/11/29 04:39:03;;;;;;;78.17;44.90;;;4.20;94.70;;;;;;5056706;28;20203;-91
2022/11/29 04:41:37;;;;;;;75.80;42.57;;;4.20;94.70;;;;;;5056415;28;20191;-91
2022/11/29 04:44:35;;;;;;;72.03;41.03;;;4.30;94.70;;;;;;5056641;28;20199;-90
2022/11/29 04:47:21;;;;;;;76.30;42.30;;;4.20;94.70;;;;;;5055984;28;20233;-91
2022/11/29 04:50:09;;;;;;;77.17;44.00;;;4.20;94.70;;;;;;5056876;28;20183;-91
2022/11/29 04:53:07;;;;;;;74.43;42.57;;;4.20;94.70;;;;;;5056508;28;20581;-91
2022/11/29 04:55:52;;;;;;;78.53;43.73;;;4.20;94.70;;;;;;5056112;28;20195;-91
2022/11/29 04:58:36;;;;;;;84.17;43.70;;;4.20;94.70;;;;;;5056436;28;20175;-91
2022/11/29 05:01:22;;;;;;;77.70;42.07;;;4.20;94.60;;;;;;5056218;28;20202;-91
2022/11/29 05:04:00;;;;;;;75.17;43.40;;;4.20;94.60;;;;;;5056337;28;20652;-91
2022/11/29 05:06:42;;;;;;;69.60;41.33;;;4.20;94.70;;;;;;5056056;28;20192;-91
2022/11/29 05:09:20;;;;;;;69.67;43.30;;;4.20;94.60;;;;;;5056145;28;20186;-91
2022/11/29 05:12:13;;;;;;;78.13;41.40;;;4.20;94.60;;;;;;5056238;28;20731;-91
2022/11/29 05:15:07;;;;;;;75.40;41.67;;;4.20;94.60;;;;;;5056207;28;20175;-91
2022/11/29 05:18:17;;;;;;;80.37;43.10;;;4.20;94.60;;;;;;5056017;28;20226;-90
2022/11/29 05:21:17;;;;;;;74.97;44.07;;;4.20;94.60;;;;;;5046432;28;20695;-91
2022/11/29 05:24:07;;;;;;;72.70;42.57;;;4.20;94.60;;;;;;5054207;28;20551;-91
2022/11/29 05:27:00;;;;;;;79.87;44.67;;;4.10;94.60;;;;;;5056105;28;20198;-90
2022/11/29 05:29:34;;;;;;;83.10;46.27;;;4.20;94.60;;;;;;5057199;28;20187;-91
2022/11/29 05:32:23;;;;;;;83.57;43.87;;;4.10;94.60;;;;;;5056801;28;20269;-90
2022/11/29 05:35:17;;;;;;;75.80;43.77;;;4.20;94.60;;;;;;5056240;28;20179;-91
2022/11/29 05:38:10;;;;;;;84.80;44.23;;;4.20;94.50;;;;;;5055095;28;20546;-91
2022/11/29 05:41:00;;;;;;;80.53;43.80;;;4.20;94.60;;;;;;5055935;28;20224;-91
2022/11/29 05:43:53;;;;;;;80.33;45.83;;;4.20;94.50;;;;;;5039126;28;20207;-91
2022/11/29 05:46:58;;;;;;;79.77;43.50;;;4.10;94.50;;;;;;5056066;28;20258;-91
2022/11/29 05:49:34;;;;;;;80.27;44.10;;;4.10;94.50;;;;;;5055940;28;20494;-91
2022/11/29 05:52:17;;;;;;;84.60;44.37;;;4.10;94.50;;;;;;5055218;28;20214;-90
2022/11/29 05:54:47;;;;;;;86.83;47.00;;;4.10;94.50;;;;;;5056986;28;20179;-91
2022/11/29 05:57:46;;;;;;;77.70;43.57;;;4.10;94.50;;;;;;5056611;28;20189;-91
2022/11/29 06:00:15;;;;;;;79.77;44.13;;;4.10;94.50;;;;;;5055727;28;20699;-91
2022/11/29 06:02:58;;;;;;;78.50;45.50;;;4.10;94.40;;;;;;5056428;28;20511;-90
2022/11/29 06:05:48;;;;;;;75.90;41.97;;;4.10;94.40;;;;;;5055717;28;20200;-90
2022/11/29 06:08:38;;;;;;;84.77;45.00;;;4.20;94.40;;;;;;5055430;28;20179;-90
2022/11/29 06:11:14;;;;;;;81.10;45.47;;;4.10;94.40;;;;;;5056798;28;20176;-91
2022/11/29 06:13:49;;;;;;;79.70;44.13;;;4.20;94.40;;;;;;5054771;28;20185;-91
2022/11/29 06:16:52;;;;;;;85.70;46.47;;;4.10;94.40;;;;;;5053811;28;20268;-90
2022/11/29 06:19:31;;;;;;;84.43;44.40;;;4.10;94.40;;;;;;5054282;28;20249;-90
2022/11/29 06:22:19;;;;;;;94.47;56.33;;;4.10;94.40;;;;;;5054681;28;20462;-91
2022/11/29 06:25:15;;;;;;;85.27;47.07;;;4.20;94.40;;;;;;5053851;28;20179;-90
2022/11/29 06:27:51;;;;;;;81.47;46.33;;;4.20;94.30;;;;;;5053607;28;20180;-89
2022/11/29 06:30:21;;;;;;;85.73;46.17;;;4.20;94.30;;;;;;5054492;28;20167;-89
2022/11/29 06:33:16;;;;;;;84.43;47.83;;;4.20;94.30;;;;;;5053814;28;20221;-89
2022/11/29 06:36:14;;;;;;;84.03;47.20;;;4.20;94.30;;;;;;5053809;28;20603;-89
2022/11/29 06:38:40;;;;;;;86.20;47.27;;;4.20;94.30;;;;;;5052926;28;20187;-89
2022/11/29 06:41:11;;;;;;;85.13;46.07;;;4.20;94.20;;;;;;5054083;28;20205;-91
2022/11/29 06:43:37;;;;;;;86.43;46.90;;;4.20;94.30;;;;;;5056267;28;20633;-89
2022/11/29 07:02:24;;;;;;;91.57;52.90;;;4.10;94.10;;;;;;6177598;22;1218651;-92
2022/11/29 07:05:39;;;;;;;83.43;47.43;;;4.30;94.00;;;;;;6197889;23;20193;-90
2022/11/29 07:08:11;;;;;;;67.90;41.03;;;4.20;94.00;;;;;;6113201;23;20976;-91
2022/11/29 07:10:38;;;;;;;81.47;47.03;;;4.30;94.00;;;;;;6249375;23;20193;-90
2022/11/29 07:13:13;;;;;;;77.40;46.20;;;4.20;93.90;;;;;;6250243;23;20605;-92
2022/11/29 07:15:54;;;;;;;79.60;45.20;;;4.20;93.90;;;;;;6224535;23;20170;-89
2022/11/29 07:18:46;;;;;;;77.60;45.53;;;4.20;93.90;;;;;;6224247;23;20176;-90
2022/11/29 07:21:44;;;;;;;79.53;46.80;;;4.10;93.80;;;;;;6224202;23;20194;-88
2022/11/29 07:24:37;;;;;;;78.80;46.27;;;4.10;93.80;;;;;;6224546;23;20210;-88
2022/11/29 07:27:40;;;;;;;84.37;47.03;;;4.20;93.80;;;;;;6223066;23;20665;-90
2022/11/29 07:30:25;;;;;;;82.43;47.47;;;4.10;93.80;;;;;;6224095;23;20153;-91
2022/11/29 07:33:08;;;;;;;86.27;46.90;;;4.10;93.90;;;;;;6222798;23;20191;-90
2022/11/29 07:35:54;;;;;;;81.10;48.67;;;4.10;93.80;;;;;;6222562;23;20156;-89
2022/11/29 07:38:32;;;;;;;80.67;48.60;;;4.10;93.80;;;;;;6222554;23;20177;-89
2022/11/29 07:41:08;;;;;;;75.87;46.10;;;4.10;93.80;;;;;;6224210;23;20173;-90
2022/11/29 07:43:51;;;;;;;83.27;48.90;;;4.10;93.80;;;;;;6224070;23;20139;-89
2022/11/29 07:46:17;;;;;;;87.40;49.87;;;4.10;93.80;;;;;;6222493;23;20177;-89
2022/11/29 07:48:42;;;;;;;85.90;48.23;;;4.10;93.90;;;;;;6223992;23;20168;-89
2022/11/29 07:51:08;;;;;;;83.93;50.57;;;4.10;93.80;;;;;;6223921;23;20181;-90
2022/11/29 07:53:39;;;;;;;81.83;48.80;;;4.10;93.90;;;;;;6222530;23;20614;-90
2022/11/29 07:56:05;;;;;;;90.73;50.67;;;4.10;93.90;;;;;;6222582;23;20573;-90
2022/11/29 07:58:31;;;;;;;88.23;48.80;;;4.10;93.90;;;;;;6222830;23;20214;-90
2022/11/29 08:00:56;;;;;;;91.53;51.97;;;4.10;93.90;;;;;;6221330;23;20204;-90
2022/11/29 08:03:22;;;;;;;80.80;49.40;;;4.10;93.90;;;;;;6215711;23;20503;-90
2022/11/29 08:05:47;;;;;;;82.23;50.03;;;4.10;94.00;;;;;;6216682;23;20157;-90
2022/11/29 08:08:14;;;;;;;92.63;50.67;;;4.10;94.00;;;;;;6215670;23;20187;-90
2022/11/29 08:10:40;;;;;;;88.60;52.03;;;4.10;94.00;;;;;;6192021;23;20163;-90
2022/11/29 08:13:05;;;;;;;92.33;51.87;;;4.10;94.00;;;;;;6190935;23;20156;-90
2022/11/29 08:15:31;;;;;;;90.07;52.97;;;4.10;94.00;;;;;;6191319;23;20187;-91
2022/11/29 08:17:56;;;;;;;90.20;52.40;;;4.10;94.00;;;;;;6191078;23;20676;-91
2022/11/29 08:20:22;;;;;;;88.77;49.90;;;4.10;94.10;;;;;;6190854;23;20175;-91
2022/11/29 08:22:58;;;;;;;88.40;52.03;;;4.10;94.10;;;;;;6190755;23;20236;-91
2022/11/29 08:25:25;;;;;;;87.30;50.17;;;4.10;94.10;;;;;;6191102;23;20332;-91
2022/11/29 08:27:50;;;;;;;87.60;51.60;;;4.10;94.20;;;;;;6191649;23;20230;-90
2022/11/29 08:30:20;;;;;;;93.67;51.07;;;4.10;94.20;;;;;;6190785;23;20232;-90
2022/11/29 08:32:46;;;;;;;85.97;50.53;;;4.10;94.20;;;;;;6191534;23;20157;-90
2022/11/29 08:35:12;;;;;;;86.87;49.63;;;4.10;94.20;;;;;;6190355;23;20161;-90
2022/11/29 08:37:37;;;;;;;87.13;50.17;;;4.10;94.20;;;;;;6190889;23;20158;-90
2022/11/29 08:40:04;;;;;;;97.03;53.73;;;4.10;94.20;;;;;;6190515;23;20175;-91
2022/11/29 08:42:29;;;;;;;97.03;53.70;;;4.10;94.30;;;;;;6191040;23;20174;-90
2022/11/29 08:44:55;;;;;;;90.33;51.10;;;4.20;94.30;;;;;;6190542;23;20154;-90
2022/11/29 08:47:35;;;;;;;88.70;49.77;;;4.20;94.30;;;;;;6190827;23;20648;-91
2022/11/29 08:50:13;;;;;;;98.07;52.63;;;4.30;94.40;;;;;;6190381;23;20184;-90
2022/11/29 08:55:38;;;;;;;96.67;52.03;;;4.20;94.40;;;;;;6222955;23;20134;-90
2022/11/29 08:58:06;;;;;;;96.23;51.00;;;4.20;94.40;;;;;;6190801;23;20229;-91
2022/11/29 09:00:33;;;;;;;92.33;52.97;;;4.30;94.50;;;;;;6190399;23;20179;-91
2022/11/29 09:03:58;;;;;;;90.00;53.03;;;4.20;94.40;;;;;;6190612;23;20162;-91
2022/11/29 09:05:45;;;;;;;90.27;52.37;;;4.30;94.50;;;;;;6217111;23;20661;-91
2022/11/29 09:08:14;;;;;;;97.70;53.67;;;4.30;94.50;;;;;;6191537;23;20190;-91
2022/11/29 09:10:40;;;;;;;94.80;53.33;;;4.30;94.50;;;;;;6218335;23;20139;-90
2022/11/29 09:13:08;;;;;;;97.07;55.90;;;4.30;94.50;;;;;;6190628;23;20163;-91
2022/11/29 09:15:33;;;;;;;87.43;52.07;;;4.30;94.50;;;;;;6190942;23;20162;-90
2022/11/29 09:17:59;;;;;;;88.60;53.37;;;4.30;94.50;;;;;;6190412;23;20676;-91
2022/11/29 09:20:25;;;;;;;94.63;54.23;;;4.30;94.50;;;;;;6190676;23;20183;-90
2022/11/29 09:22:50;;;;;;;96.53;55.00;;;4.40;94.50;;;;;;6216636;23;20587;-90
2022/11/29 09:25:16;;;;;;;96.97;55.37;;;4.40;94.50;;;;;;6216927;23;20193;-89
2022/11/29 09:27:41;;;;;;;95.07;53.30;;;4.40;94.50;;;;;;6190014;23;20170;-90
2022/11/29 09:30:08;;;;;;;91.70;53.93;;;4.40;94.50;;;;;;6190116;23;20168;-91
2022/11/29 09:32:37;;;;;;;91.47;54.37;;;4.40;94.50;;;;;;6192473;23;20161;-92
2022/11/29 09:35:03;;;;;;;92.83;53.60;;;4.40;94.50;;;;;;6191131;23;20582;-89
2022/11/29 09:37:28;;;;;;;92.70;53.23;;;4.40;94.40;;;;;;6216424;23;20162;-90
2022/11/29 09:39:54;;;;;;;91.30;51.57;;;4.40;94.50;;;;;;6189588;23;20187;-90
2022/11/29 09:42:38;;;;;;;94.10;53.80;;;4.40;94.40;;;;;;6190283;23;20170;-90
2022/11/29 09:45:09;;;;;;;92.23;51.50;;;4.40;94.40;;;;;;6216571;23;20156;-90
2022/11/29 09:47:56;;;;;;;98.80;53.13;;;4.50;94.40;;;;;;6189803;23;20144;-90
2022/11/29 09:51:11;;;;;;;94.13;52.97;;;4.50;94.40;;;;;;6190741;23;20307;-89
2022/11/29 09:54:03;;;;;;;86.27;51.00;;;4.50;94.40;;;;;;6181949;23;20245;-89
2022/11/29 09:56:46;;;;;;;93.20;55.67;;;4.50;94.40;;;;;;6190282;23;20194;-89
2022/11/29 09:59:20;;;;;;;91.53;52.10;;;4.50;94.30;;;;;;6190574;23;20191;-89
2022/11/29 10:02:09;;;;;;;103.13;54.17;;;4.50;94.30;;;;;;6189508;23;20179;-89
2022/11/29 10:04:39;;;;;;;87.50;53.50;;;4.50;94.30;;;;;;6215311;23;20159;-90
2022/11/29 10:07:16;;;;;;;87.43;52.30;;;4.50;94.30;;;;;;6189565;23;20147;-89
2022/11/29 10:10:00;;;;;;;86.80;54.07;;;4.60;94.20;;;;;;6207297;23;20194;-89
2022/11/29 10:12:43;;;;;;;85.43;52.57;;;4.50;94.20;;;;;;6216190;23;20131;-90
2022/11/29 10:15:27;;;;;;;91.27;53.33;;;4.50;94.20;;;;;;6214521;23;20147;-90
2022/11/29 10:18:01;;;;;;;93.80;54.93;;;4.50;94.20;;;;;;6214625;23;20152;-91
2022/11/29 10:20:31;;;;;;;90.57;52.97;;;4.60;94.20;;;;;;6215612;23;20179;-90
2022/11/29 10:23:19;;;;;;;93.93;55.97;;;4.60;94.20;;;;;;6214526;23;20154;-91
2022/11/29 10:25:50;;;;;;;86.50;53.20;;;4.60;94.10;;;;;;6214508;23;20151;-91
2022/11/29 10:28:19;;;;;;;95.57;54.87;;;4.60;94.20;;;;;;6214781;23;20206;-90
2022/11/29 10:30:46;;;;;;;87.77;52.57;;;4.60;94.10;;;;;;6214553;23;20607;-91
2022/11/29 10:33:27;;;;;;;90.67;55.77;;;4.60;94.10;;;;;;6214389;23;20165;-90
2022/11/29 10:36:03;;;;;;;84.27;52.27;;;4.60;94.10;;;;;;6214702;23;20536;-91
2022/11/29 10:38:28;;;;;;;91.90;54.10;;;4.70;94.00;;;;;;6214581;23;20179;-91
2022/11/29 10:41:00;;;;;;;89.20;54.00;;;4.70;94.00;;;;;;6214628;23;20190;-90
2022/11/29 10:43:26;;;;;;;93.20;55.07;;;4.70;93.90;;;;;;6214681;23;20179;-90
2022/11/29 10:45:54;;;;;;;84.77;51.10;;;4.70;93.90;;;;;;6214723;23;20606;-89
2022/11/29 10:48:23;;;;;;;89.77;51.97;;;4.70;93.90;;;;;;6214096;23;20198;-90
2022/11/29 10:50:51;;;;;;;89.17;51.77;;;4.70;93.90;;;;;;6214197;23;20285;-90
2022/11/29 10:53:24;;;;;;;91.40;52.83;;;4.70;93.80;;;;;;6216172;23;20532;-89
2022/11/29 10:56:17;;;;;;;82.40;51.77;;;4.60;93.80;;;;;;6214298;23;20163;-90
2022/11/29 10:59:04;;;;;;;87.90;49.50;;;4.70;93.90;;;;;;6214494;23;20182;-90
2022/11/29 11:01:49;;;;;;;83.43;50.47;;;4.70;93.80;;;;;;6216029;23;20170;-90
2022/11/29 11:04:20;;;;;;;85.33;50.90;;;4.60;93.70;;;;;;6215980;23;20210;-90
2022/11/29 11:06:54;;;;;;;80.47;51.30;;;4.70;93.80;;;;;;6215256;23;20151;-91
2022/11/29 11:09:40;;;;;;;79.30;50.63;;;4.60;93.70;;;;;;6214633;23;20191;-90
2022/11/29 11:12:18;;;;;;;80.10;47.90;;;4.70;93.70;;;;;;6214443;23;20154;-90
2022/11/29 11:14:45;;;;;;;84.00;48.20;;;4.60;93.60;;;;;;6214324;23;20227;-89
2022/11/29 11:17:22;;;;;;;89.40;53.43;;;4.50;93.60;;;;;;6214197;23;20239;-90
2022/11/29 11:20:03;;;;;;;80.07;51.83;;;4.50;93.60;;;;;;6215894;23;20178;-89
2022/11/29 11:22:32;;;;;;;85.57;49.93;;;4.60;93.60;;;;;;6214258;23;20636;-91
2022/11/29 11:25:18;;;;;;;85.67;50.13;;;4.60;93.60;;;;;;6215229;23;20588;-89
2022/11/29 11:27:44;;;;;;;86.20;51.67;;;4.60;93.50;;;;;;6214059;23;20579;-89
2022/11/29 11:30:24;;;;;;;78.17;49.10;;;4.60;93.50;;;;;;6214544;23;20162;-91
2022/11/29 11:33:17;;;;;;;81.63;50.47;;;4.60;93.50;;;;;;6215159;23;20241;-89
2022/11/29 11:35:43;;;;;;;84.53;49.40;;;4.60;93.60;;;;;;6215740;23;20207;-89
2022/11/29 11:38:16;;;;;;;82.20;50.63;;;4.60;93.50;;;;;;6217277;23;20688;-88
2022/11/29 11:40:42;;;;;;;84.67;51.73;;;4.70;93.60;;;;;;6222628;23;20171;-87
2022/11/29 11:43:22;;;;;;;82.50;50.67;;;4.70;93.60;;;;;;6219647;23;20235;-88
2022/11/29 11:45:52;;;;;;;86.57;50.97;;;4.60;93.50;;;;;;6221612;23;20242;-86
2022/11/29 11:48:18;;;;;;;83.40;51.80;;;4.60;93.60;;;;;;6222824;23;20180;-86
2022/11/29 11:50:49;;;;;;;82.23;48.60;;;4.60;93.60;;;;;;6222717;23;20599;-86
2022/11/29 11:53:22;;;;;;;88.10;53.20;;;4.60;93.70;;;;;;6222482;23;20153;-86
2022/11/29 11:56:00;;;;;;;80.03;50.67;;;4.70;93.70;;;;;;6221897;23;20177;-86
2022/11/29 11:58:28;;;;;;;89.27;52.53;;;4.60;93.70;;;;;;6222627;23;20178;-86
2022/11/29 12:01:38;;;;;;;87.90;53.73;;;4.70;93.70;;;;;;6222617;23;20176;-86
2022/11/29 12:04:26;;;;;;;88.40;51.50;;;4.60;93.70;;;;;;6216140;23;20480;-86
2022/11/29 12:07:08;;;;;;;83.97;52.50;;;4.60;93.70;;;;;;6221783;23;20472;-86
2022/11/29 12:09:56;;;;;;;90.47;50.60;;;4.60;93.70;;;;;;6223910;23;20636;-86
2022/11/29 12:12:37;;;;;;;87.03;51.47;;;4.60;93.70;;;;;;6223315;23;20453;-86
2022/11/29 12:15:18;;;;;;;85.73;50.83;;;4.60;93.70;;;;;;6197113;23;20158;-87
2022/11/29 12:17:54;;;;;;;84.27;52.37;;;4.60;93.70;;;;;;6196907;23;20163;-86
2022/11/29 12:20:35;;;;;;;81.90;52.33;;;4.60;93.70;;;;;;6195278;23;20201;-86
2022/11/29 12:23:01;;;;;;;89.93;51.20;;;4.60;93.70;;;;;;6196075;23;20162;-86
2022/11/29 12:25:53;;;;;;;82.60;51.77;;;4.70;93.70;;;;;;6195135;23;20602;-86
2022/11/29 12:28:21;;;;;;;86.47;50.93;;;4.60;93.70;;;;;;6160108;23;20182;-86
2022/11/29 12:31:13;;;;;;;87.10;52.67;;;4.60;93.70;;;;;;6222547;23;20162;-86
2022/11/29 12:34:17;;;;;;;93.00;52.33;;;4.70;93.70;;;;;;6195661;23;20351;-86
2022/11/29 12:36:54;;;;;;;81.27;49.27;;;4.70;93.70;;;;;;6195332;23;20186;-86
2022/11/29 12:39:34;;;;;;;83.63;50.70;;;4.70;93.70;;;;;;6195764;23;20187;-86
2022/11/29 12:42:07;;;;;;;81.87;48.60;;;4.70;93.70;;;;;;6195227;23;20154;-86
2022/11/29 12:44:50;;;;;;;86.07;51.53;;;4.70;93.70;;;;;;6224146;23;20142;-86
2022/11/29 12:47:32;;;;;;;82.93;51.20;;;4.60;93.70;;;;;;6197536;23;20151;-86
2022/11/29 12:50:18;;;;;;;86.73;51.93;;;4.70;93.70;;;;;;6195975;23;20179;-86
2022/11/29 12:53:00;;;;;;;87.57;52.23;;;4.70;93.70;;;;;;6196394;23;20233;-86
2022/11/29 12:55:29;;;;;;;92.00;51.07;;;4.70;93.70;;;;;;6196700;23;20163;-86
2022/11/29 12:58:04;;;;;;;88.83;53.53;;;4.70;93.80;;;;;;6195205;23;20160;-86
2022/11/29 13:00:41;;;;;;;92.97;53.87;;;4.60;93.70;;;;;;6195855;23;20178;-85
2022/11/29 13:03:16;;;;;;;89.33;51.57;;;4.70;93.70;;;;;;6199369;23;20643;-86
2022/11/29 13:06:06;;;;;;;87.87;51.67;;;4.60;93.80;;;;;;6222236;23;20140;-86
2022/11/29 13:08:44;;;;;;;85.37;51.27;;;4.70;93.70;;;;;;6196824;23;20535;-86
2022/11/29 13:11:29;;;;;;;89.67;50.90;;;4.70;93.70;;;;;;6193534;23;20561;-86
2022/11/29 13:14:09;;;;;;;88.60;51.63;;;4.70;93.70;;;;;;6222640;23;20579;-86
2022/11/29 13:16:55;;;;;;;89.10;53.13;;;4.70;93.70;;;;;;6196347;23;20151;-86
2022/11/29 13:19:32;;;;;;;88.90;53.03;;;4.70;93.70;;;;;;6192310;23;20175;-86
2022/11/29 13:22:09;;;;;;;87.37;53.23;;;4.70;93.70;;;;;;6192183;23;20524;-85
2022/11/29 13:24:44;;;;;;;85.73;50.73;;;4.80;93.80;;;;;;6192811;23;20205;-86
2022/11/29 13:27:31;;;;;;;88.27;53.17;;;4.80;93.80;;;;;;6192967;23;20165;-86
2022/11/29 13:29:59;;;;;;;89.40;53.37;;;4.80;93.70;;;;;;6194177;23;20182;-86
2022/11/29 13:32:39;;;;;;;90.40;53.87;;;4.80;93.80;;;;;;6196453;23;20171;-86
2022/11/29 13:35:34;;;;;;;87.33;50.60;;;4.80;93.80;;;;;;6194747;23;20151;-86
2022/11/29 13:38:07;;;;;;;87.30;52.43;;;4.70;93.80;;;;;;6196160;23;20182;-86
2022/11/29 13:40:45;;;;;;;94.70;55.27;;;4.80;93.80;;;;;;6190957;23;20183;-86
2022/11/29 13:43:22;;;;;;;86.50;51.90;;;4.80;93.80;;;;;;6190671;23;20155;-85
2022/11/29 13:46:22;;;;;;;88.43;54.63;;;4.80;93.80;;;;;;6190848;23;20156;-86
2022/11/29 13:48:50;;;;;;;85.03;52.37;;;4.80;93.90;;;;;;6190722;23;20175;-86